»·PEaware :: UAL736 KSAN-KSFO

UAL736 :: KSAN-KSFO

FLIGHT INFORMATION

Flight Status: Arrived
Operator:
United Airlines
More flights by this operator :: More flights under this callsign
Pilot: John C. (18682)
Aircraft: BOEING 737-800
(B738)
More flights by this aircraft type
Origin: KSAN San Diego Intl-Lindbergh
United States
Destination: KSFO San Francisco Intl
United States
More flights between these airports :: More routes between these airports
Route: ECHHO2 IKAYE RIZIN SPLNT STOKD SERFR SERFR3
File this flight plan on PilotEdge
Remarks:
Altitude:
(Current/Filed)
30,000ft
Speed:
(Current/Filed)
448kts
Departed: 06-Dec-18 04:41 PM
Arrived: 06-Dec-18 05:51 PM
Distance/Time
Traveled:
388nm/1:10
Distance/Time
To Go:
Arrived

Flight Plot

Page will automatically refresh every two minutes.

Flight plan parsing failed; only flown route is shown


Map Options




Map Legend


Flown Route
Filed Route
Departure Airport
Arrival Airport
Navaid (VOR, NDB)
Fix

Horizontal Profiles

Position Reports

Time Latitude Longitude Heading Altitude Ground
Speed
06-Dec-18 16:18 32.734517 -117.203416 230 17ft 0kts
06-Dec-18 16:19 32.734517 -117.203416 230 17ft 0kts
06-Dec-18 16:20 32.734517 -117.203416 230 17ft 0kts
06-Dec-18 16:20 32.734517 -117.203416 230 17ft 0kts
06-Dec-18 16:22 32.734517 -117.203416 230 17ft 0kts
06-Dec-18 16:23 32.734517 -117.203416 230 17ft 0kts
06-Dec-18 16:24 32.734517 -117.203416 230 17ft 0kts
06-Dec-18 16:25 32.734517 -117.203416 230 17ft 0kts
06-Dec-18 16:25 32.734517 -117.203416 230 17ft 0kts
06-Dec-18 16:27 32.734517 -117.203416 230 17ft 0kts
06-Dec-18 16:27 32.734517 -117.203416 230 17ft 0kts
06-Dec-18 16:29 32.734517 -117.203416 230 17ft 0kts
06-Dec-18 16:29 32.734517 -117.203416 230 17ft 0kts
06-Dec-18 16:30 32.734517 -117.203416 230 17ft 0kts
06-Dec-18 16:31 32.734517 -117.203416 230 17ft 0kts
06-Dec-18 16:32 32.734517 -117.203416 230 17ft 0kts
06-Dec-18 16:33 32.734626 -117.203259 230 17ft 2kts
06-Dec-18 16:34 32.734630 -117.202635 328 17ft 2kts
06-Dec-18 16:35 32.734328 -117.202603 16 17ft 0kts
06-Dec-18 16:36 32.734328 -117.202603 16 17ft 0kts
06-Dec-18 16:37 32.734345 -117.202597 16 17ft 1kts
06-Dec-18 16:38 32.735642 -117.202629 287 17ft 6kts
06-Dec-18 16:39 32.736245 -117.204031 339 17ft 0kts
06-Dec-18 16:40 32.735846 -117.199121 106 17ft 77kts
06-Dec-18 16:41 32.725145 -117.152897 111 1415ft 176kts
06-Dec-18 16:42 32.707304 -117.088660 112 3029ft 243kts
06-Dec-18 16:43 32.704974 -117.008716 42 5708ft 286kts
06-Dec-18 16:44 32.767612 -117.030615 294 8541ft 279kts
06-Dec-18 16:45 32.801573 -117.114143 291 10493ft 316kts
06-Dec-18 16:46 32.839724 -117.209377 291 13137ft 331kts
06-Dec-18 16:47 32.894177 -117.298559 314 14980ft 350kts
06-Dec-18 16:48 32.967206 -117.373459 314 15080ft 351kts
06-Dec-18 16:49 33.041436 -117.451000 314 17645ft 363kts
06-Dec-18 16:50 33.113021 -117.525879 315 19796ft 376kts
06-Dec-18 16:51 33.191419 -117.608539 314 21932ft 386kts
06-Dec-18 16:52 33.260790 -117.703975 305 23909ft 393kts
06-Dec-18 16:53 33.330535 -117.805595 305 25756ft 402kts
06-Dec-18 16:54 33.401236 -117.908891 305 27439ft 411kts
06-Dec-18 16:55 33.473481 -118.014730 305 28981ft 419kts
06-Dec-18 16:56 33.545606 -118.120746 305 29932ft 435kts
06-Dec-18 16:57 33.622773 -118.234479 305 29937ft 445kts
06-Dec-18 16:58 33.700026 -118.348642 305 29946ft 446kts
06-Dec-18 16:59 33.777533 -118.463513 305 29944ft 446kts
06-Dec-18 17:00 33.854545 -118.578005 305 29943ft 447kts
06-Dec-18 17:01 33.932709 -118.689005 308 29950ft 447kts
06-Dec-18 17:02 34.015564 -118.799573 308 29951ft 447kts
06-Dec-18 17:03 34.095913 -118.907143 309 29956ft 436kts
06-Dec-18 17:04 34.172602 -119.010181 311 29950ft 431kts
06-Dec-18 17:05 34.246570 -119.109792 311 29943ft 432kts
06-Dec-18 17:06 34.321873 -119.211426 311 29939ft 432kts
06-Dec-18 17:07 34.399886 -119.317015 311 29944ft 432kts
06-Dec-18 17:08 34.478100 -119.423194 311 29944ft 432kts
06-Dec-18 17:09 34.557035 -119.530671 311 29942ft 432kts
06-Dec-18 17:10 34.636592 -119.639322 311 29942ft 432kts
06-Dec-18 17:11 34.715796 -119.747908 311 29945ft 432kts
06-Dec-18 17:12 34.795201 -119.857126 311 29966ft 431kts
06-Dec-18 17:13 34.872804 -119.964182 311 29979ft 431kts
06-Dec-18 17:14 34.951672 -120.073365 312 29982ft 434kts
06-Dec-18 17:15 35.031378 -120.184030 312 29987ft 440kts
06-Dec-18 17:16 35.110223 -120.293813 312 29988ft 441kts
06-Dec-18 17:17 35.189779 -120.404915 312 29976ft 441kts
06-Dec-18 17:18 35.268596 -120.515324 312 29965ft 442kts
06-Dec-18 17:19 35.345977 -120.624075 312 29963ft 441kts
06-Dec-18 17:20 35.425043 -120.735590 312 29972ft 442kts
06-Dec-18 17:21 35.506838 -120.840473 323 29988ft 440kts
06-Dec-18 17:22 35.601669 -120.928578 323 29990ft 439kts
06-Dec-18 17:23 35.697016 -121.017540 323 29989ft 435kts
06-Dec-18 17:24 35.790864 -121.105313 324 29989ft 429kts
06-Dec-18 17:25 35.883304 -121.191709 324 29988ft 422kts
06-Dec-18 17:26 35.976377 -121.278646 324 29984ft 422kts
06-Dec-18 17:27 36.069944 -121.365840 326 29976ft 422kts
06-Dec-18 17:28 36.161715 -121.437656 329 29984ft 420kts
06-Dec-18 17:29 36.259498 -121.513960 329 29926ft 421kts
06-Dec-18 17:30 36.356498 -121.589974 329 27407ft 407kts
06-Dec-18 17:31 36.449403 -121.663017 328 24988ft 389kts
06-Dec-18 17:32 36.538255 -121.733174 329 22748ft 372kts
06-Dec-18 17:33 36.623217 -121.800441 329 20537ft 360kts
06-Dec-18 17:34 36.705708 -121.865894 329 18465ft 348kts
06-Dec-18 17:35 36.792133 -121.909198 348 16440ft 336kts
06-Dec-18 17:36 36.880914 -121.933297 348 14574ft 327kts
06-Dec-18 17:37 36.967809 -121.958596 344 12650ft 323kts
06-Dec-18 17:38 37.052151 -121.991988 343 10816ft 318kts
06-Dec-18 17:39 37.128995 -122.022097 343 10170ft 284kts
06-Dec-18 17:40 37.200030 -122.049936 343 9187ft 274kts
06-Dec-18 17:41 37.271775 -122.078090 343 8054ft 270kts
06-Dec-18 17:42 37.341638 -122.105607 343 6541ft 262kts
06-Dec-18 17:43 37.405461 -122.129592 345 5460ft 228kts
06-Dec-18 17:44 37.462247 -122.148891 345 4383ft 198kts
06-Dec-18 17:45 37.512811 -122.166230 345 3452ft 186kts
06-Dec-18 17:46 37.548852 -122.209419 299 2510ft 186kts
06-Dec-18 17:47 37.570921 -122.261511 299 1753ft 156kts
06-Dec-18 17:48 37.591120 -122.309444 300 898ft 155kts
06-Dec-18 17:49 37.610942 -122.356713 300 92ft 151kts
06-Dec-18 17:50 37.618976 -122.378271 271 27ft 13kts
06-Dec-18 17:51 37.619677 -122.382053 297 31ft 11kts
06-Dec-18 17:52 37.620121 -122.386162 286 30ft 9kts
06-Dec-18 17:53 37.620237 -122.386638 286 30ft 0kts
06-Dec-18 17:54 37.620237 -122.386638 286 30ft 0kts

Navigation Log

Ident Type
Flight plan parsing failed, navigation log unavailable